sensor_id;sensor_type;location;lat;lon;timestamp;P1;durP1;ratioP1;P2;durP2;ratioP2
2538;SDS011;1280;49.760;9.664;2023-06-14T00:00:12;11.63;;;6.60;;
2538;SDS011;1280;49.760;9.664;2023-06-14T00:02:42;9.40;;;6.80;;
2538;SDS011;1280;49.760;9.664;2023-06-14T00:05:10;12.27;;;6.90;;
2538;SDS011;1280;49.760;9.664;2023-06-14T00:07:39;9.20;;;6.40;;
2538;SDS011;1280;49.760;9.664;2023-06-14T00:10:10;10.70;;;7.23;;
2538;SDS011;1280;49.760;9.664;2023-06-14T00:12:39;11.27;;;7.70;;
2538;SDS011;1280;49.760;9.664;2023-06-14T00:15:08;10.93;;;6.93;;
2538;SDS011;1280;49.760;9.664;2023-06-14T00:17:36;12.27;;;6.83;;
2538;SDS011;1280;49.760;9.664;2023-06-14T00:20:05;15.70;;;7.20;;
2538;SDS011;1280;49.760;9.664;2023-06-14T00:22:34;11.37;;;7.00;;
2538;SDS011;1280;49.760;9.664;2023-06-14T00:25:03;11.10;;;7.40;;
2538;SDS011;1280;49.760;9.664;2023-06-14T00:27:44;9.20;;;6.63;;
2538;SDS011;1280;49.760;9.664;2023-06-14T00:30:15;9.27;;;6.40;;
2538;SDS011;1280;49.760;9.664;2023-06-14T00:32:43;9.50;;;6.73;;
2538;SDS011;1280;49.760;9.664;2023-06-14T00:35:12;14.40;;;7.43;;
2538;SDS011;1280;49.760;9.664;2023-06-14T00:37:41;12.03;;;7.13;;
2538;SDS011;1280;49.760;9.664;2023-06-14T00:40:09;10.10;;;7.17;;
2538;SDS011;1280;49.760;9.664;2023-06-14T00:42:37;10.70;;;7.17;;
2538;SDS011;1280;49.760;9.664;2023-06-14T00:45:06;9.90;;;6.93;;
2538;SDS011;1280;49.760;9.664;2023-06-14T00:47:36;11.73;;;7.00;;
2538;SDS011;1280;49.760;9.664;2023-06-14T00:50:06;9.33;;;6.73;;
2538;SDS011;1280;49.760;9.664;2023-06-14T00:52:35;11.33;;;7.30;;
2538;SDS011;1280;49.760;9.664;2023-06-14T00:55:04;11.47;;;7.27;;
2538;SDS011;1280;49.760;9.664;2023-06-14T00:57:32;9.73;;;7.33;;
2538;SDS011;1280;49.760;9.664;2023-06-14T01:00:05;10.70;;;6.97;;
2538;SDS011;1280;49.760;9.664;2023-06-14T01:02:39;11.00;;;7.90;;
2538;SDS011;1280;49.760;9.664;2023-06-14T01:05:08;12.60;;;7.20;;
2538;SDS011;1280;49.760;9.664;2023-06-14T01:07:49;11.13;;;7.20;;
2538;SDS011;1280;49.760;9.664;2023-06-14T01:10:31;11.20;;;7.57;;
2538;SDS011;1280;49.760;9.664;2023-06-14T01:13:07;10.73;;;6.90;;
2538;SDS011;1280;49.760;9.664;2023-06-14T01:15:42;10.90;;;6.90;;
2538;SDS011;1280;49.760;9.664;2023-06-14T01:18:14;9.33;;;7.00;;
2538;SDS011;1280;49.760;9.664;2023-06-14T01:20:45;10.00;;;7.27;;
2538;SDS011;1280;49.760;9.664;2023-06-14T01:23:18;11.07;;;6.97;;
2538;SDS011;1280;49.760;9.664;2023-06-14T01:25:47;10.03;;;6.43;;
2538;SDS011;1280;49.760;9.664;2023-06-14T01:28:19;10.50;;;7.13;;
2538;SDS011;1280;49.760;9.664;2023-06-14T01:30:49;9.40;;;6.60;;
2538;SDS011;1280;49.760;9.664;2023-06-14T01:33:20;12.07;;;7.70;;
2538;SDS011;1280;49.760;9.664;2023-06-14T01:35:50;10.50;;;6.97;;
2538;SDS011;1280;49.760;9.664;2023-06-14T01:38:21;10.40;;;7.33;;
2538;SDS011;1280;49.760;9.664;2023-06-14T01:40:52;12.20;;;6.87;;
2538;SDS011;1280;49.760;9.664;2023-06-14T01:43:24;11.70;;;6.33;;
2538;SDS011;1280;49.760;9.664;2023-06-14T01:45:53;9.50;;;7.13;;
2538;SDS011;1280;49.760;9.664;2023-06-14T01:48:22;11.63;;;7.60;;
2538;SDS011;1280;49.760;9.664;2023-06-14T01:50:51;13.27;;;7.30;;
2538;SDS011;1280;49.760;9.664;2023-06-14T01:53:21;9.53;;;6.87;;
2538;SDS011;1280;49.760;9.664;2023-06-14T01:55:50;10.87;;;7.30;;
2538;SDS011;1280;49.760;9.664;2023-06-14T01:58:20;11.20;;;6.47;;
2538;SDS011;1280;49.760;9.664;2023-06-14T02:00:48;9.53;;;6.63;;
2538;SDS011;1280;49.760;9.664;2023-06-14T02:03:17;11.90;;;7.73;;
2538;SDS011;1280;49.760;9.664;2023-06-14T02:05:45;11.60;;;7.00;;
2538;SDS011;1280;49.760;9.664;2023-06-14T02:08:14;10.30;;;7.30;;
2538;SDS011;1280;49.760;9.664;2023-06-14T02:10:44;10.93;;;7.20;;
2538;SDS011;1280;49.760;9.664;2023-06-14T02:13:13;11.33;;;7.67;;
2538;SDS011;1280;49.760;9.664;2023-06-14T02:15:41;11.57;;;7.57;;
2538;SDS011;1280;49.760;9.664;2023-06-14T02:18:10;10.97;;;7.27;;
2538;SDS011;1280;49.760;9.664;2023-06-14T02:20:39;9.30;;;7.43;;
2538;SDS011;1280;49.760;9.664;2023-06-14T02:23:07;10.90;;;7.47;;
2538;SDS011;1280;49.760;9.664;2023-06-14T02:25:35;12.07;;;6.60;;
2538;SDS011;1280;49.760;9.664;2023-06-14T02:28:08;13.30;;;6.80;;
2538;SDS011;1280;49.760;9.664;2023-06-14T02:30:37;10.67;;;7.03;;
2538;SDS011;1280;49.760;9.664;2023-06-14T02:33:07;10.73;;;6.23;;
2538;SDS011;1280;49.760;9.664;2023-06-14T02:35:39;12.70;;;7.60;;
2538;SDS011;1280;49.760;9.664;2023-06-14T02:38:07;11.00;;;7.33;;
2538;SDS011;1280;49.760;9.664;2023-06-14T02:40:36;11.80;;;7.23;;
2538;SDS011;1280;49.760;9.664;2023-06-14T02:43:03;10.77;;;7.10;;
2538;SDS011;1280;49.760;9.664;2023-06-14T02:45:33;10.23;;;6.80;;
2538;SDS011;1280;49.760;9.664;2023-06-14T02:48:01;12.03;;;7.23;;
2538;SDS011;1280;49.760;9.664;2023-06-14T02:50:29;11.50;;;7.90;;
2538;SDS011;1280;49.760;9.664;2023-06-14T02:52:57;9.23;;;7.07;;
2538;SDS011;1280;49.760;9.664;2023-06-14T02:55:25;12.17;;;7.60;;
2538;SDS011;1280;49.760;9.664;2023-06-14T02:57:54;12.47;;;7.80;;
2538;SDS011;1280;49.760;9.664;2023-06-14T03:00:22;13.80;;;8.00;;
2538;SDS011;1280;49.760;9.664;2023-06-14T03:02:52;13.10;;;7.17;;
2538;SDS011;1280;49.760;9.664;2023-06-14T03:05:23;12.10;;;7.43;;
2538;SDS011;1280;49.760;9.664;2023-06-14T03:07:51;11.30;;;7.43;;
2538;SDS011;1280;49.760;9.664;2023-06-14T03:10:20;13.50;;;7.30;;
2538;SDS011;1280;49.760;9.664;2023-06-14T03:12:50;10.70;;;7.17;;
2538;SDS011;1280;49.760;9.664;2023-06-14T03:15:20;11.30;;;6.67;;
2538;SDS011;1280;49.760;9.664;2023-06-14T03:17:52;14.17;;;7.77;;
2538;SDS011;1280;49.760;9.664;2023-06-14T03:20:21;12.80;;;7.03;;
2538;SDS011;1280;49.760;9.664;2023-06-14T03:22:52;9.77;;;7.00;;
2538;SDS011;1280;49.760;9.664;2023-06-14T03:25:20;12.00;;;6.50;;
2538;SDS011;1280;49.760;9.664;2023-06-14T03:27:50;13.30;;;6.90;;
2538;SDS011;1280;49.760;9.664;2023-06-14T03:30:19;13.13;;;7.93;;
2538;SDS011;1280;49.760;9.664;2023-06-14T03:32:48;11.30;;;7.70;;
2538;SDS011;1280;49.760;9.664;2023-06-14T03:35:20;11.50;;;7.10;;
2538;SDS011;1280;49.760;9.664;2023-06-14T03:37:48;10.00;;;7.20;;
2538;SDS011;1280;49.760;9.664;2023-06-14T03:40:17;11.50;;;7.23;;
2538;SDS011;1280;49.760;9.664;2023-06-14T03:42:49;13.93;;;7.07;;
2538;SDS011;1280;49.760;9.664;2023-06-14T03:45:17;10.70;;;7.53;;
2538;SDS011;1280;49.760;9.664;2023-06-14T03:47:46;9.17;;;6.30;;
2538;SDS011;1280;49.760;9.664;2023-06-14T03:50:15;10.93;;;7.40;;
2538;SDS011;1280;49.760;9.664;2023-06-14T03:52:45;10.73;;;6.80;;
2538;SDS011;1280;49.760;9.664;2023-06-14T03:55:15;13.33;;;7.57;;
2538;SDS011;1280;49.760;9.664;2023-06-14T03:57:47;11.70;;;7.47;;
2538;SDS011;1280;49.760;9.664;2023-06-14T04:00:17;13.70;;;6.80;;
2538;SDS011;1280;49.760;9.664;2023-06-14T04:02:46;17.17;;;6.90;;
2538;SDS011;1280;49.760;9.664;2023-06-14T04:05:14;14.60;;;8.10;;
2538;SDS011;1280;49.760;9.664;2023-06-14T04:07:53;15.10;;;8.57;;
2538;SDS011;1280;49.760;9.664;2023-06-14T04:10:22;9.73;;;7.30;;
2538;SDS011;1280;49.760;9.664;2023-06-14T04:12:50;10.97;;;6.80;;
2538;SDS011;1280;49.760;9.664;2023-06-14T04:15:18;11.57;;;7.97;;
2538;SDS011;1280;49.760;9.664;2023-06-14T04:17:52;10.90;;;7.20;;
2538;SDS011;1280;49.760;9.664;2023-06-14T04:20:24;9.60;;;6.60;;
2538;SDS011;1280;49.760;9.664;2023-06-14T04:22:56;13.13;;;6.70;;
2538;SDS011;1280;49.760;9.664;2023-06-14T04:25:24;16.97;;;8.40;;
2538;SDS011;1280;49.760;9.664;2023-06-14T04:27:57;9.93;;;6.90;;
2538;SDS011;1280;49.760;9.664;2023-06-14T04:30:25;11.87;;;6.60;;
2538;SDS011;1280;49.760;9.664;2023-06-14T04:32:57;11.63;;;7.40;;
2538;SDS011;1280;49.760;9.664;2023-06-14T04:35:26;16.30;;;6.97;;
2538;SDS011;1280;49.760;9.664;2023-06-14T04:37:57;11.57;;;7.20;;
2538;SDS011;1280;49.760;9.664;2023-06-14T04:40:26;18.67;;;7.40;;
2538;SDS011;1280;49.760;9.664;2023-06-14T04:42:54;10.00;;;6.17;;
2538;SDS011;1280;49.760;9.664;2023-06-14T04:45:23;10.37;;;7.00;;
2538;SDS011;1280;49.760;9.664;2023-06-14T04:47:58;11.93;;;6.90;;
2538;SDS011;1280;49.760;9.664;2023-06-14T04:50:27;11.93;;;6.73;;
2538;SDS011;1280;49.760;9.664;2023-06-14T04:52:57;12.70;;;6.83;;
2538;SDS011;1280;49.760;9.664;2023-06-14T04:55:27;11.57;;;6.60;;
2538;SDS011;1280;49.760;9.664;2023-06-14T04:57:56;14.67;;;7.40;;
2538;SDS011;1280;49.760;9.664;2023-06-14T05:00:26;13.33;;;7.80;;
2538;SDS011;1280;49.760;9.664;2023-06-14T05:02:56;10.07;;;6.57;;
2538;SDS011;1280;49.760;9.664;2023-06-14T05:05:28;11.10;;;7.23;;
2538;SDS011;1280;49.760;9.664;2023-06-14T05:07:59;15.67;;;7.50;;
2538;SDS011;1280;49.760;9.664;2023-06-14T05:10:30;13.23;;;7.37;;
2538;SDS011;1280;49.760;9.664;2023-06-14T05:13:01;9.40;;;6.90;;
2538;SDS011;1280;49.760;9.664;2023-06-14T05:15:29;13.17;;;6.73;;
2538;SDS011;1280;49.760;9.664;2023-06-14T05:17:59;9.57;;;6.57;;
2538;SDS011;1280;49.760;9.664;2023-06-14T05:20:30;11.20;;;6.60;;
2538;SDS011;1280;49.760;9.664;2023-06-14T05:23:00;10.90;;;7.30;;
2538;SDS011;1280;49.760;9.664;2023-06-14T05:25:30;13.43;;;6.50;;
2538;SDS011;1280;49.760;9.664;2023-06-14T05:27:57;12.27;;;7.43;;
2538;SDS011;1280;49.760;9.664;2023-06-14T05:30:34;12.40;;;5.90;;
2538;SDS011;1280;49.760;9.664;2023-06-14T05:33:02;10.80;;;7.27;;
2538;SDS011;1280;49.760;9.664;2023-06-14T05:35:31;18.17;;;6.80;;
2538;SDS011;1280;49.760;9.664;2023-06-14T05:38:00;10.80;;;6.97;;
2538;SDS011;1280;49.760;9.664;2023-06-14T05:40:38;10.60;;;6.83;;
2538;SDS011;1280;49.760;9.664;2023-06-14T05:43:06;12.00;;;7.17;;
2538;SDS011;1280;49.760;9.664;2023-06-14T05:45:34;9.60;;;6.03;;
2538;SDS011;1280;49.760;9.664;2023-06-14T05:48:02;14.90;;;6.90;;
2538;SDS011;1280;49.760;9.664;2023-06-14T05:50:31;10.27;;;6.30;;
2538;SDS011;1280;49.760;9.664;2023-06-14T05:53:00;11.40;;;6.90;;
2538;SDS011;1280;49.760;9.664;2023-06-14T05:55:28;10.53;;;6.67;;
2538;SDS011;1280;49.760;9.664;2023-06-14T05:57:56;10.93;;;6.57;;
2538;SDS011;1280;49.760;9.664;2023-06-14T06:00:24;9.07;;;6.20;;
2538;SDS011;1280;49.760;9.664;2023-06-14T06:02:53;15.23;;;7.00;;
2538;SDS011;1280;49.760;9.664;2023-06-14T06:05:26;12.63;;;6.40;;
2538;SDS011;1280;49.760;9.664;2023-06-14T06:07:54;11.90;;;6.43;;
2538;SDS011;1280;49.760;9.664;2023-06-14T06:10:24;14.37;;;6.60;;
2538;SDS011;1280;49.760;9.664;2023-06-14T06:12:52;11.93;;;6.23;;
2538;SDS011;1280;49.760;9.664;2023-06-14T06:15:20;10.10;;;6.07;;
2538;SDS011;1280;49.760;9.664;2023-06-14T06:18:27;13.07;;;6.70;;
2538;SDS011;1280;49.760;9.664;2023-06-14T06:20:37;12.53;;;6.50;;
2538;SDS011;1280;49.760;9.664;2023-06-14T06:23:05;9.57;;;6.03;;
2538;SDS011;1280;49.760;9.664;2023-06-14T06:25:35;11.50;;;6.43;;
2538;SDS011;1280;49.760;9.664;2023-06-14T06:28:03;12.00;;;6.60;;
2538;SDS011;1280;49.760;9.664;2023-06-14T06:30:31;8.40;;;5.60;;
2538;SDS011;1280;49.760;9.664;2023-06-14T06:32:59;12.67;;;6.23;;
2538;SDS011;1280;49.760;9.664;2023-06-14T06:35:27;11.43;;;5.93;;
2538;SDS011;1280;49.760;9.664;2023-06-14T06:37:56;12.10;;;7.03;;
2538;SDS011;1280;49.760;9.664;2023-06-14T06:40:28;9.80;;;6.10;;
2538;SDS011;1280;49.760;9.664;2023-06-14T06:42:57;9.63;;;6.23;;
2538;SDS011;1280;49.760;9.664;2023-06-14T06:45:26;9.30;;;5.97;;
2538;SDS011;1280;49.760;9.664;2023-06-14T06:47:54;17.43;;;7.13;;
2538;SDS011;1280;49.760;9.664;2023-06-14T06:50:22;10.30;;;5.30;;
2538;SDS011;1280;49.760;9.664;2023-06-14T06:52:51;14.03;;;6.50;;
2538;SDS011;1280;49.760;9.664;2023-06-14T06:55:20;11.93;;;6.20;;
2538;SDS011;1280;49.760;9.664;2023-06-14T06:57:48;11.40;;;6.70;;
2538;SDS011;1280;49.760;9.664;2023-06-14T07:00:20;9.03;;;5.50;;
2538;SDS011;1280;49.760;9.664;2023-06-14T07:02:48;14.43;;;6.63;;
2538;SDS011;1280;49.760;9.664;2023-06-14T07:05:17;13.77;;;6.83;;
2538;SDS011;1280;49.760;9.664;2023-06-14T07:07:45;9.43;;;6.47;;
2538;SDS011;1280;49.760;9.664;2023-06-14T07:10:13;14.20;;;6.27;;
2538;SDS011;1280;49.760;9.664;2023-06-14T07:12:41;10.87;;;5.93;;
2538;SDS011;1280;49.760;9.664;2023-06-14T07:15:09;12.70;;;6.40;;
2538;SDS011;1280;49.760;9.664;2023-06-14T07:17:39;11.43;;;6.70;;
2538;SDS011;1280;49.760;9.664;2023-06-14T07:20:08;11.87;;;5.93;;
2538;SDS011;1280;49.760;9.664;2023-06-14T07:22:38;13.27;;;7.27;;
2538;SDS011;1280;49.760;9.664;2023-06-14T07:25:08;10.90;;;6.20;;
2538;SDS011;1280;49.760;9.664;2023-06-14T07:27:39;13.53;;;6.50;;
2538;SDS011;1280;49.760;9.664;2023-06-14T07:30:07;9.90;;;6.77;;
2538;SDS011;1280;49.760;9.664;2023-06-14T07:32:36;9.87;;;5.73;;
2538;SDS011;1280;49.760;9.664;2023-06-14T07:35:06;11.50;;;6.73;;
2538;SDS011;1280;49.760;9.664;2023-06-14T07:37:34;13.30;;;7.43;;
2538;SDS011;1280;49.760;9.664;2023-06-14T07:40:03;16.33;;;6.90;;
2538;SDS011;1280;49.760;9.664;2023-06-14T07:42:33;12.43;;;6.70;;
2538;SDS011;1280;49.760;9.664;2023-06-14T07:45:02;13.53;;;6.40;;
2538;SDS011;1280;49.760;9.664;2023-06-14T07:47:31;13.73;;;7.40;;
2538;SDS011;1280;49.760;9.664;2023-06-14T07:49:59;10.50;;;6.83;;
2538;SDS011;1280;49.760;9.664;2023-06-14T07:52:29;11.13;;;6.33;;
2538;SDS011;1280;49.760;9.664;2023-06-14T07:54:57;9.60;;;6.50;;
2538;SDS011;1280;49.760;9.664;2023-06-14T07:57:25;15.80;;;6.20;;
2538;SDS011;1280;49.760;9.664;2023-06-14T07:59:53;11.80;;;7.30;;
2538;SDS011;1280;49.760;9.664;2023-06-14T08:02:21;10.53;;;6.30;;
2538;SDS011;1280;49.760;9.664;2023-06-14T08:04:49;10.50;;;6.37;;
2538;SDS011;1280;49.760;9.664;2023-06-14T08:07:17;13.53;;;6.40;;
2538;SDS011;1280;49.760;9.664;2023-06-14T08:09:46;12.00;;;6.47;;
2538;SDS011;1280;49.760;9.664;2023-06-14T08:12:14;12.40;;;6.60;;
2538;SDS011;1280;49.760;9.664;2023-06-14T08:14:42;10.50;;;5.73;;
2538;SDS011;1280;49.760;9.664;2023-06-14T08:17:11;11.43;;;6.53;;
2538;SDS011;1280;49.760;9.664;2023-06-14T08:19:39;11.13;;;5.87;;
2538;SDS011;1280;49.760;9.664;2023-06-14T08:22:07;11.23;;;6.27;;
2538;SDS011;1280;49.760;9.664;2023-06-14T08:24:38;12.37;;;6.97;;
2538;SDS011;1280;49.760;9.664;2023-06-14T08:27:08;13.63;;;5.83;;
2538;SDS011;1280;49.760;9.664;2023-06-14T08:29:36;11.83;;;6.70;;
2538;SDS011;1280;49.760;9.664;2023-06-14T08:32:06;13.20;;;6.77;;
2538;SDS011;1280;49.760;9.664;2023-06-14T08:34:34;11.27;;;6.40;;
2538;SDS011;1280;49.760;9.664;2023-06-14T08:37:03;8.90;;;5.60;;
2538;SDS011;1280;49.760;9.664;2023-06-14T08:39:31;10.43;;;6.13;;
2538;SDS011;1280;49.760;9.664;2023-06-14T08:42:01;12.50;;;6.30;;
2538;SDS011;1280;49.760;9.664;2023-06-14T08:44:31;12.03;;;6.30;;
2538;SDS011;1280;49.760;9.664;2023-06-14T08:47:00;10.50;;;6.23;;
2538;SDS011;1280;49.760;9.664;2023-06-14T08:49:29;9.57;;;6.20;;
2538;SDS011;1280;49.760;9.664;2023-06-14T08:52:00;12.00;;;6.83;;
2538;SDS011;1280;49.760;9.664;2023-06-14T08:54:29;9.43;;;6.13;;
2538;SDS011;1280;49.760;9.664;2023-06-14T08:56:57;12.67;;;6.70;;
2538;SDS011;1280;49.760;9.664;2023-06-14T08:59:25;10.10;;;7.30;;
2538;SDS011;1280;49.760;9.664;2023-06-14T09:01:55;12.67;;;6.20;;
2538;SDS011;1280;49.760;9.664;2023-06-14T09:04:37;10.40;;;6.00;;
2538;SDS011;1280;49.760;9.664;2023-06-14T09:07:05;9.53;;;6.50;;
2538;SDS011;1280;49.760;9.664;2023-06-14T09:09:37;10.30;;;6.13;;
2538;SDS011;1280;49.760;9.664;2023-06-14T09:12:13;12.60;;;6.97;;
2538;SDS011;1280;49.760;9.664;2023-06-14T09:14:41;11.37;;;5.70;;
2538;SDS011;1280;49.760;9.664;2023-06-14T09:17:12;12.07;;;6.43;;
2538;SDS011;1280;49.760;9.664;2023-06-14T09:19:40;12.70;;;6.33;;
2538;SDS011;1280;49.760;9.664;2023-06-14T09:22:08;16.83;;;7.20;;
2538;SDS011;1280;49.760;9.664;2023-06-14T09:24:38;10.67;;;6.33;;
2538;SDS011;1280;49.760;9.664;2023-06-14T09:27:11;12.00;;;7.40;;
2538;SDS011;1280;49.760;9.664;2023-06-14T09:29:43;11.30;;;7.20;;
2538;SDS011;1280;49.760;9.664;2023-06-14T09:32:12;9.83;;;6.30;;
2538;SDS011;1280;49.760;9.664;2023-06-14T09:34:40;9.50;;;6.60;;
2538;SDS011;1280;49.760;9.664;2023-06-14T09:37:08;10.57;;;6.90;;
2538;SDS011;1280;49.760;9.664;2023-06-14T09:39:39;9.50;;;6.87;;
2538;SDS011;1280;49.760;9.664;2023-06-14T09:42:17;11.27;;;6.30;;
2538;SDS011;1280;49.760;9.664;2023-06-14T09:44:46;11.03;;;6.30;;
2538;SDS011;1280;49.760;9.664;2023-06-14T09:47:17;10.37;;;5.90;;
2538;SDS011;1280;49.760;9.664;2023-06-14T09:49:45;15.00;;;6.57;;
2538;SDS011;1280;49.760;9.664;2023-06-14T09:52:14;11.27;;;5.87;;
2538;SDS011;1280;49.760;9.664;2023-06-14T09:54:44;11.00;;;6.17;;
2538;SDS011;1280;49.760;9.664;2023-06-14T09:57:14;9.00;;;6.17;;
2538;SDS011;1280;49.760;9.664;2023-06-14T09:59:43;12.60;;;6.50;;
2538;SDS011;1280;49.760;9.664;2023-06-14T10:02:17;11.80;;;6.70;;
2538;SDS011;1280;49.760;9.664;2023-06-14T10:04:50;10.63;;;5.43;;
2538;SDS011;1280;49.760;9.664;2023-06-14T10:07:27;12.40;;;5.50;;
2538;SDS011;1280;49.760;9.664;2023-06-14T10:09:59;8.77;;;5.40;;
2538;SDS011;1280;49.760;9.664;2023-06-14T10:12:27;8.57;;;5.07;;
2538;SDS011;1280;49.760;9.664;2023-06-14T10:14:55;7.47;;;5.40;;
2538;SDS011;1280;49.760;9.664;2023-06-14T10:17:30;11.20;;;5.33;;
2538;SDS011;1280;49.760;9.664;2023-06-14T10:20:10;12.27;;;5.10;;
2538;SDS011;1280;49.760;9.664;2023-06-14T10:22:48;9.50;;;5.80;;
2538;SDS011;1280;49.760;9.664;2023-06-14T10:25:28;10.63;;;5.20;;
2538;SDS011;1280;49.760;9.664;2023-06-14T10:28:05;8.40;;;5.30;;
2538;SDS011;1280;49.760;9.664;2023-06-14T10:33:35;10.80;;;5.90;;
2538;SDS011;1280;49.760;9.664;2023-06-14T10:36:10;10.60;;;5.27;;
2538;SDS011;1280;49.760;9.664;2023-06-14T10:38:57;11.83;;;5.77;;
2538;SDS011;1280;49.760;9.664;2023-06-14T10:41:26;14.53;;;5.40;;
2538;SDS011;1280;49.760;9.664;2023-06-14T10:47:10;11.37;;;5.60;;
2538;SDS011;1280;49.760;9.664;2023-06-14T10:49:51;15.63;;;5.83;;
2538;SDS011;1280;49.760;9.664;2023-06-14T10:52:20;14.03;;;4.63;;
2538;SDS011;1280;49.760;9.664;2023-06-14T10:55:07;10.17;;;5.30;;
2538;SDS011;1280;49.760;9.664;2023-06-14T10:57:38;9.33;;;5.13;;
2538;SDS011;1280;49.760;9.664;2023-06-14T11:00:17;9.70;;;5.20;;
2538;SDS011;1280;49.760;9.664;2023-06-14T11:06:12;8.43;;;4.90;;
2538;SDS011;1280;49.760;9.664;2023-06-14T11:08:51;10.37;;;5.30;;
2538;SDS011;1280;49.760;9.664;2023-06-14T11:11:37;10.87;;;5.23;;
2538;SDS011;1280;49.760;9.664;2023-06-14T11:14:09;8.40;;;5.00;;
2538;SDS011;1280;49.760;9.664;2023-06-14T11:16:37;11.70;;;4.80;;
2538;SDS011;1280;49.760;9.664;2023-06-14T11:19:05;8.80;;;5.57;;
2538;SDS011;1280;49.760;9.664;2023-06-14T11:21:39;9.73;;;4.27;;
2538;SDS011;1280;49.760;9.664;2023-06-14T11:24:13;9.57;;;5.10;;
2538;SDS011;1280;49.760;9.664;2023-06-14T11:26:41;12.97;;;5.10;;
2538;SDS011;1280;49.760;9.664;2023-06-14T11:29:09;11.23;;;5.23;;
2538;SDS011;1280;49.760;9.664;2023-06-14T11:31:37;10.07;;;4.30;;
2538;SDS011;1280;49.760;9.664;2023-06-14T11:34:11;10.07;;;4.27;;
2538;SDS011;1280;49.760;9.664;2023-06-14T11:36:41;8.33;;;4.60;;
2538;SDS011;1280;49.760;9.664;2023-06-14T11:39:09;8.40;;;5.20;;
2538;SDS011;1280;49.760;9.664;2023-06-14T11:41:38;8.90;;;4.40;;
2538;SDS011;1280;49.760;9.664;2023-06-14T11:44:07;12.37;;;5.20;;
2538;SDS011;1280;49.760;9.664;2023-06-14T11:46:35;10.20;;;4.90;;
2538;SDS011;1280;49.760;9.664;2023-06-14T11:49:04;10.43;;;4.67;;
2538;SDS011;1280;49.760;9.664;2023-06-14T11:51:34;9.83;;;4.60;;
2538;SDS011;1280;49.760;9.664;2023-06-14T11:54:04;12.80;;;4.67;;
2538;SDS011;1280;49.760;9.664;2023-06-14T11:56:34;6.70;;;4.50;;
2538;SDS011;1280;49.760;9.664;2023-06-14T11:59:04;7.93;;;4.00;;
2538;SDS011;1280;49.760;9.664;2023-06-14T12:01:35;8.60;;;4.30;;
2538;SDS011;1280;49.760;9.664;2023-06-14T12:04:06;8.97;;;4.50;;
2538;SDS011;1280;49.760;9.664;2023-06-14T12:06:34;9.10;;;5.00;;
2538;SDS011;1280;49.760;9.664;2023-06-14T12:09:07;7.90;;;4.67;;
2538;SDS011;1280;49.760;9.664;2023-06-14T12:11:40;8.97;;;4.60;;
2538;SDS011;1280;49.760;9.664;2023-06-14T12:14:08;7.90;;;4.00;;
2538;SDS011;1280;49.760;9.664;2023-06-14T12:16:38;11.00;;;4.60;;
2538;SDS011;1280;49.760;9.664;2023-06-14T12:19:08;9.17;;;3.90;;
2538;SDS011;1280;49.760;9.664;2023-06-14T12:21:39;8.93;;;4.43;;
2538;SDS011;1280;49.760;9.664;2023-06-14T12:24:09;8.03;;;4.70;;
2538;SDS011;1280;49.760;9.664;2023-06-14T12:26:40;7.60;;;4.20;;
2538;SDS011;1280;49.760;9.664;2023-06-14T12:29:08;7.60;;;4.40;;
2538;SDS011;1280;49.760;9.664;2023-06-14T12:31:39;10.83;;;4.50;;
2538;SDS011;1280;49.760;9.664;2023-06-14T12:34:08;10.20;;;3.90;;
2538;SDS011;1280;49.760;9.664;2023-06-14T12:36:36;8.20;;;4.03;;
2538;SDS011;1280;49.760;9.664;2023-06-14T12:39:09;7.47;;;3.50;;
2538;SDS011;1280;49.760;9.664;2023-06-14T12:41:37;7.70;;;4.37;;
2538;SDS011;1280;49.760;9.664;2023-06-14T12:44:07;7.50;;;4.00;;
2538;SDS011;1280;49.760;9.664;2023-06-14T12:46:36;7.70;;;4.30;;
2538;SDS011;1280;49.760;9.664;2023-06-14T12:49:07;6.60;;;3.57;;
2538;SDS011;1280;49.760;9.664;2023-06-14T12:51:36;9.53;;;4.00;;
2538;SDS011;1280;49.760;9.664;2023-06-14T12:54:04;7.97;;;4.20;;
2538;SDS011;1280;49.760;9.664;2023-06-14T12:56:33;8.67;;;4.27;;
2538;SDS011;1280;49.760;9.664;2023-06-14T12:59:01;6.73;;;4.00;;
2538;SDS011;1280;49.760;9.664;2023-06-14T13:01:29;7.20;;;3.80;;
2538;SDS011;1280;49.760;9.664;2023-06-14T13:03:57;8.33;;;4.33;;
2538;SDS011;1280;49.760;9.664;2023-06-14T13:06:25;10.30;;;4.40;;
2538;SDS011;1280;49.760;9.664;2023-06-14T13:08:55;8.03;;;4.20;;
2538;SDS011;1280;49.760;9.664;2023-06-14T13:11:57;9.20;;;4.30;;
2538;SDS011;1280;49.760;9.664;2023-06-14T13:14:15;11.43;;;3.83;;
2538;SDS011;1280;49.760;9.664;2023-06-14T13:16:51;9.90;;;4.47;;
2538;SDS011;1280;49.760;9.664;2023-06-14T13:19:20;8.03;;;4.70;;
2538;SDS011;1280;49.760;9.664;2023-06-14T13:21:48;9.80;;;4.40;;
2538;SDS011;1280;49.760;9.664;2023-06-14T13:24:16;8.13;;;4.27;;
2538;SDS011;1280;49.760;9.664;2023-06-14T13:26:44;8.77;;;3.90;;
2538;SDS011;1280;49.760;9.664;2023-06-14T13:29:13;7.00;;;4.00;;
2538;SDS011;1280;49.760;9.664;2023-06-14T13:31:41;6.43;;;3.07;;
2538;SDS011;1280;49.760;9.664;2023-06-14T13:34:09;8.17;;;3.80;;
2538;SDS011;1280;49.760;9.664;2023-06-14T13:36:37;8.73;;;3.83;;
2538;SDS011;1280;49.760;9.664;2023-06-14T13:39:06;6.90;;;3.90;;
2538;SDS011;1280;49.760;9.664;2023-06-14T13:42:12;8.03;;;3.57;;
2538;SDS011;1280;49.760;9.664;2023-06-14T13:44:24;7.63;;;3.63;;
2538;SDS011;1280;49.760;9.664;2023-06-14T13:46:52;11.07;;;4.20;;
2538;SDS011;1280;49.760;9.664;2023-06-14T13:49:20;7.67;;;4.00;;
2538;SDS011;1280;49.760;9.664;2023-06-14T13:51:48;14.50;;;4.70;;
2538;SDS011;1280;49.760;9.664;2023-06-14T13:54:18;10.87;;;4.27;;
2538;SDS011;1280;49.760;9.664;2023-06-14T13:56:47;6.70;;;3.80;;
2538;SDS011;1280;49.760;9.664;2023-06-14T13:59:15;8.80;;;3.80;;
2538;SDS011;1280;49.760;9.664;2023-06-14T14:01:45;9.30;;;4.37;;
2538;SDS011;1280;49.760;9.664;2023-06-14T14:04:14;8.80;;;4.20;;
2538;SDS011;1280;49.760;9.664;2023-06-14T14:06:42;6.63;;;3.80;;
2538;SDS011;1280;49.760;9.664;2023-06-14T14:09:13;8.50;;;3.37;;
2538;SDS011;1280;49.760;9.664;2023-06-14T14:12:20;7.47;;;3.73;;
2538;SDS011;1280;49.760;9.664;2023-06-14T14:14:31;8.53;;;3.70;;
2538;SDS011;1280;49.760;9.664;2023-06-14T14:17:01;8.03;;;3.50;;
2538;SDS011;1280;49.760;9.664;2023-06-14T14:19:30;11.23;;;3.77;;
2538;SDS011;1280;49.760;9.664;2023-06-14T14:21:59;10.33;;;3.63;;
2538;SDS011;1280;49.760;9.664;2023-06-14T14:24:27;15.53;;;3.73;;
2538;SDS011;1280;49.760;9.664;2023-06-14T14:26:55;7.60;;;3.47;;
2538;SDS011;1280;49.760;9.664;2023-06-14T14:29:26;7.00;;;3.97;;
2538;SDS011;1280;49.760;9.664;2023-06-14T14:31:56;7.40;;;3.70;;
2538;SDS011;1280;49.760;9.664;2023-06-14T14:34:25;7.47;;;3.90;;
2538;SDS011;1280;49.760;9.664;2023-06-14T14:36:53;8.10;;;4.03;;
2538;SDS011;1280;49.760;9.664;2023-06-14T14:39:21;7.00;;;3.83;;
2538;SDS011;1280;49.760;9.664;2023-06-14T14:41:49;6.37;;;3.57;;
2538;SDS011;1280;49.760;9.664;2023-06-14T14:44:17;9.73;;;4.03;;
2538;SDS011;1280;49.760;9.664;2023-06-14T14:46:45;6.60;;;3.43;;
2538;SDS011;1280;49.760;9.664;2023-06-14T14:49:13;7.67;;;3.90;;
2538;SDS011;1280;49.760;9.664;2023-06-14T14:51:43;10.87;;;4.30;;
2538;SDS011;1280;49.760;9.664;2023-06-14T14:54:11;6.43;;;3.43;;
2538;SDS011;1280;49.760;9.664;2023-06-14T14:56:39;7.03;;;3.57;;
2538;SDS011;1280;49.760;9.664;2023-06-14T14:59:07;6.17;;;3.23;;
2538;SDS011;1280;49.760;9.664;2023-06-14T15:01:35;7.67;;;4.13;;
2538;SDS011;1280;49.760;9.664;2023-06-14T15:04:08;9.67;;;3.93;;
2538;SDS011;1280;49.760;9.664;2023-06-14T15:06:36;6.17;;;3.57;;
2538;SDS011;1280;49.760;9.664;2023-06-14T15:09:07;6.23;;;3.10;;
2538;SDS011;1280;49.760;9.664;2023-06-14T15:11:35;10.70;;;3.80;;
2538;SDS011;1280;49.760;9.664;2023-06-14T15:14:03;8.97;;;3.97;;
2538;SDS011;1280;49.760;9.664;2023-06-14T15:16:31;6.30;;;3.57;;
2538;SDS011;1280;49.760;9.664;2023-06-14T15:18:59;8.97;;;3.60;;
2538;SDS011;1280;49.760;9.664;2023-06-14T15:21:28;6.37;;;3.73;;
2538;SDS011;1280;49.760;9.664;2023-06-14T15:23:56;10.57;;;4.10;;
2538;SDS011;1280;49.760;9.664;2023-06-14T15:26:26;8.00;;;3.53;;
2538;SDS011;1280;49.760;9.664;2023-06-14T15:28:55;6.80;;;3.40;;
2538;SDS011;1280;49.760;9.664;2023-06-14T15:31:23;6.60;;;3.57;;